createdAt,value
2023-02-18T00:01:39.712Z,99335.19
2023-02-18T00:04:08.012Z,99350.00
2023-02-18T00:06:37.105Z,99353.41
2023-02-18T00:09:06.463Z,99349.72
2023-02-18T00:11:36.122Z,99345.28
2023-02-18T00:14:09.153Z,99351.88
2023-02-18T00:16:37.130Z,99350.91
2023-02-18T00:19:07.708Z,99356.88
2023-02-18T00:21:36.434Z,99340.19
2023-02-18T00:24:05.519Z,99362.50
2023-02-18T00:26:33.679Z,99345.47
2023-02-18T00:29:01.202Z,99346.13
2023-02-18T00:31:34.468Z,99362.56
2023-02-18T00:34:03.590Z,99355.41
2023-02-18T00:36:31.536Z,99355.13
2023-02-18T00:39:00.827Z,99351.34
2023-02-18T00:41:30.192Z,99332.75
2023-02-18T00:43:59.772Z,99367.34
2023-02-18T00:46:30.605Z,99356.72
2023-02-18T00:48:58.212Z,99372.31
2023-02-18T00:51:26.047Z,99381.16
2023-02-18T00:53:53.627Z,99375.13
2023-02-18T00:56:21.747Z,99351.47
2023-02-18T00:58:49.838Z,99355.81
2023-02-18T01:01:19.905Z,99377.00
2023-02-18T01:03:47.641Z,99396.34
2023-02-18T01:06:15.218Z,99394.97
2023-02-18T01:08:43.168Z,99375.03
2023-02-18T01:11:12.371Z,99383.06
2023-02-18T01:13:41.665Z,99369.41
2023-02-18T01:16:15.546Z,99350.97
2023-02-18T01:18:42.681Z,99360.56
2023-02-18T01:21:10.994Z,99364.81
2023-02-18T01:23:39.735Z,99378.06
2023-02-18T01:26:08.452Z,99371.28
2023-02-18T01:28:36.244Z,99354.72
2023-02-18T01:31:10.321Z,99351.25
2023-02-18T01:33:38.854Z,99366.28
2023-02-18T01:36:08.175Z,99375.63
2023-02-18T01:38:37.253Z,99370.91
2023-02-18T01:41:05.015Z,99378.28
2023-02-18T01:43:38.517Z,99384.00
2023-02-18T01:46:20.367Z,99380.88
2023-02-18T01:48:53.431Z,99394.97
2023-02-18T01:51:32.294Z,99382.66
2023-02-18T01:54:22.872Z,99381.53
2023-02-18T01:57:18.827Z,99377.78
2023-02-18T01:59:56.864Z,99412.94
2023-02-18T02:02:28.972Z,99391.69
2023-02-18T02:04:56.462Z,99376.44
2023-02-18T02:07:26.269Z,99400.63
2023-02-18T02:09:56.767Z,99360.03
2023-02-18T02:13:01.365Z,99414.63
2023-02-18T02:15:45.247Z,99395.59
2023-02-18T02:18:30.553Z,99392.44
2023-02-18T02:21:28.669Z,99378.28
2023-02-18T02:24:14.649Z,99399.88
2023-02-18T02:27:15.806Z,99395.72
2023-02-18T02:30:27.196Z,99414.56
2023-02-18T02:33:19.682Z,99396.28
2023-02-18T02:35:57.271Z,99426.50
2023-02-18T02:38:36.538Z,99422.22
2023-02-18T02:41:24.779Z,99422.09
2023-02-18T02:44:10.368Z,99418.19
2023-02-18T02:46:57.737Z,99410.16
2023-02-18T02:49:32.624Z,99414.13
2023-02-18T02:52:15.817Z,99419.88
2023-02-18T02:54:43.686Z,99422.16
2023-02-18T02:57:16.913Z,99423.75
2023-02-18T02:59:49.873Z,99437.25
2023-02-18T03:02:34.108Z,99423.50
2023-02-18T03:05:26.394Z,99420.47
2023-02-18T03:08:10.131Z,99433.19
2023-02-18T03:10:48.835Z,99398.47
2023-02-18T03:13:36.776Z,99432.56
2023-02-18T03:16:28.556Z,99414.09
2023-02-18T03:19:02.149Z,99426.53
2023-02-18T03:21:43.672Z,99427.25
2023-02-18T03:24:17.128Z,99437.03
2023-02-18T03:26:52.710Z,99417.25
2023-02-18T03:29:21.989Z,99441.81
2023-02-18T03:31:54.917Z,99412.53
2023-02-18T03:34:30.439Z,99433.59
2023-02-18T03:37:00.314Z,99420.59
2023-02-18T03:39:34.493Z,99424.94
2023-02-18T03:42:02.843Z,99434.78
2023-02-18T03:44:31.722Z,99441.78
2023-02-18T03:46:58.958Z,99431.44
2023-02-18T03:49:26.444Z,99445.03
2023-02-18T03:51:53.922Z,99442.28
2023-02-18T03:54:21.836Z,99441.84
2023-02-18T03:56:49.428Z,99448.16
2023-02-18T03:59:16.982Z,99443.16
2023-02-18T04:01:44.493Z,99446.81
2023-02-18T04:04:18.135Z,99440.25
2023-02-18T04:06:45.067Z,99450.19
2023-02-18T04:09:14.682Z,99460.81
2023-02-18T04:11:42.939Z,99456.13
2023-02-18T04:14:17.348Z,99459.00
2023-02-18T04:16:44.848Z,99473.47
2023-02-18T04:19:12.226Z,99480.63
2023-02-18T04:21:39.631Z,99468.22
2023-02-18T04:24:07.154Z,99470.41
2023-02-18T04:26:34.715Z,99492.13
2023-02-18T04:29:02.165Z,99479.69
2023-02-18T04:31:29.732Z,99492.53
2023-02-18T04:33:58.109Z,99468.97
2023-02-18T04:36:26.418Z,99471.09
2023-02-18T04:38:54.072Z,99487.91
2023-02-18T04:41:21.488Z,99482.56
2023-02-18T04:43:49.950Z,99493.28
2023-02-18T04:46:17.676Z,99479.94
2023-02-18T04:48:44.873Z,99489.66
2023-02-18T04:51:13.419Z,99485.25
2023-02-18T04:53:40.870Z,99487.66
2023-02-18T04:56:10.463Z,99488.78
2023-02-18T04:58:39.806Z,99483.16
2023-02-18T05:01:07.509Z,99487.44
2023-02-18T05:03:34.652Z,99505.94
2023-02-18T05:06:02.220Z,99477.22
2023-02-18T05:08:29.418Z,99490.97
2023-02-18T05:10:57.592Z,99495.72
2023-02-18T05:13:25.994Z,99505.44
2023-02-18T05:15:53.553Z,99495.19
2023-02-18T05:18:23.034Z,99503.44
2023-02-18T05:20:50.455Z,99513.56
2023-02-18T05:23:20.420Z,99508.94
2023-02-18T05:25:48.129Z,99509.31
2023-02-18T05:28:15.773Z,99517.00
2023-02-18T05:30:43.210Z,99500.19
2023-02-18T05:33:10.403Z,99518.47
2023-02-18T05:35:37.795Z,99526.59
2023-02-18T05:38:05.368Z,99487.34
2023-02-18T05:40:32.774Z,99510.13
2023-02-18T05:43:00.203Z,99498.31
2023-02-18T05:45:27.686Z,99509.16
2023-02-18T05:47:55.171Z,99514.47
2023-02-18T05:50:23.677Z,99520.06
2023-02-18T05:52:51.116Z,99527.63
2023-02-18T05:55:18.625Z,99526.34
2023-02-18T05:57:46.060Z,99519.53
2023-02-18T06:00:14.010Z,99533.63
2023-02-18T06:02:41.404Z,99533.41
2023-02-18T06:05:09.332Z,99541.69
2023-02-18T06:07:37.130Z,99537.28
2023-02-18T06:10:05.614Z,99545.78
2023-02-18T06:12:32.830Z,99544.03
2023-02-18T06:15:00.242Z,99532.31
2023-02-18T06:17:27.832Z,99539.13
2023-02-18T06:19:57.300Z,99538.69
2023-02-18T06:22:25.052Z,99543.28
2023-02-18T06:24:52.108Z,99543.47
2023-02-18T06:27:19.660Z,99531.56
2023-02-18T06:29:47.177Z,99550.91
2023-02-18T06:32:15.715Z,99545.81
2023-02-18T06:34:43.131Z,99551.34
2023-02-18T06:37:10.526Z,99552.34
2023-02-18T06:39:39.560Z,99569.31
2023-02-18T06:42:12.647Z,99552.97
2023-02-18T06:44:40.082Z,99576.28
2023-02-18T06:47:07.804Z,99564.84
2023-02-18T06:49:36.750Z,99571.75
2023-02-18T06:52:04.020Z,99563.81
2023-02-18T06:54:32.026Z,99561.09
2023-02-18T06:57:00.565Z,99559.22
2023-02-18T06:59:28.065Z,99556.31
2023-02-18T07:01:55.387Z,99566.25
2023-02-18T07:04:23.104Z,99580.53
2023-02-18T07:06:50.265Z,99565.50
2023-02-18T07:09:17.785Z,99559.22
2023-02-18T07:11:46.476Z,99572.91
2023-02-18T07:14:15.817Z,99547.94
2023-02-18T07:16:43.236Z,99550.25
2023-02-18T07:19:10.684Z,99561.91
2023-02-18T07:21:38.134Z,99580.41
2023-02-18T07:24:05.905Z,99569.50
2023-02-18T07:26:33.017Z,99545.69
2023-02-18T07:29:00.517Z,99560.19
2023-02-18T07:31:28.142Z,99572.72
2023-02-18T07:33:55.395Z,99552.03
2023-02-18T07:36:22.752Z,99558.16
2023-02-18T07:38:50.296Z,99567.22
2023-02-18T07:41:22.071Z,99560.34
2023-02-18T07:43:52.322Z,99550.69
2023-02-18T07:46:20.305Z,99552.66
2023-02-18T07:48:47.803Z,99568.50
2023-02-18T07:51:15.217Z,99540.03
2023-02-18T07:53:43.682Z,99542.78
2023-02-18T07:56:10.922Z,99550.69
2023-02-18T07:58:42.570Z,99544.28
2023-02-18T08:01:15.378Z,99549.94
2023-02-18T08:03:43.044Z,99565.41
2023-02-18T08:06:24.804Z,99547.56
2023-02-18T08:08:53.125Z,99550.78
2023-02-18T08:11:20.643Z,99547.16
2023-02-18T08:13:48.963Z,99539.22
2023-02-18T08:16:20.707Z,99549.34
2023-02-18T08:18:49.977Z,99536.03
2023-02-18T08:21:20.731Z,99556.84
2023-02-18T08:23:50.147Z,99547.72
2023-02-18T08:26:18.744Z,99565.44
2023-02-18T08:28:47.848Z,99558.56
2023-02-18T08:31:27.126Z,99549.22
2023-02-18T08:33:57.994Z,99558.41
2023-02-18T08:36:25.504Z,99545.78
2023-02-18T08:38:55.172Z,99551.00
2023-02-18T08:41:22.443Z,99551.16
2023-02-18T08:43:50.243Z,99538.94
2023-02-18T08:46:25.252Z,99549.53
2023-02-18T08:49:02.194Z,99559.97
2023-02-18T08:51:31.731Z,99571.38
2023-02-18T08:54:00.172Z,99554.31
2023-02-18T08:56:27.726Z,99567.41
2023-02-18T08:58:55.080Z,99560.28
2023-02-18T09:01:22.523Z,99578.63
2023-02-18T09:03:49.991Z,99566.38
2023-02-18T09:06:18.441Z,99584.31
2023-02-18T09:08:45.989Z,99531.22
2023-02-18T09:11:16.504Z,99576.09
2023-02-18T09:13:43.987Z,99573.84
2023-02-18T09:16:20.637Z,99579.09
2023-02-18T09:18:48.769Z,99579.44
2023-02-18T09:21:23.653Z,99563.25
2023-02-18T09:23:51.574Z,99568.34
2023-02-18T09:26:25.338Z,99586.03
2023-02-18T09:28:54.266Z,99577.31
2023-02-18T09:31:24.753Z,99567.91
2023-02-18T09:33:56.643Z,99576.41
2023-02-18T09:36:23.902Z,99562.63
2023-02-18T09:38:51.288Z,99583.16
2023-02-18T09:42:03.732Z,99573.38
2023-02-18T09:44:39.201Z,99571.53
2023-02-18T09:47:17.497Z,99583.41
2023-02-18T09:49:49.799Z,99570.63
2023-02-18T09:52:24.075Z,99566.25
2023-02-18T09:54:52.089Z,99560.59
2023-02-18T09:57:24.626Z,99578.38
2023-02-18T10:00:05.587Z,99579.16
2023-02-18T10:02:36.092Z,99590.56
2023-02-18T10:05:05.652Z,99575.19
2023-02-18T10:07:34.544Z,99553.44
2023-02-18T10:10:19.208Z,99566.69
2023-02-18T10:12:46.571Z,99567.00
2023-02-18T10:15:22.891Z,99553.84
2023-02-18T10:17:52.279Z,99551.31
2023-02-18T10:20:24.072Z,99544.00
2023-02-18T10:22:53.432Z,99541.78
2023-02-18T10:25:25.071Z,99541.69
2023-02-18T10:27:54.549Z,99527.44
2023-02-18T10:30:36.319Z,99524.81
2023-02-18T10:33:22.640Z,99526.06
2023-02-18T10:35:57.336Z,99526.69
2023-02-18T10:38:59.567Z,99509.03
2023-02-18T10:41:44.573Z,99511.28
2023-02-18T10:44:17.281Z,99506.88
2023-02-18T10:47:13.303Z,99498.88
2023-02-18T10:50:03.888Z,99490.22
2023-02-18T10:52:37.702Z,99490.00
2023-02-18T10:55:09.774Z,99470.41
2023-02-18T10:57:55.348Z,99472.97
2023-02-18T11:00:27.304Z,99481.03
2023-02-18T11:03:17.972Z,99473.56
2023-02-18T11:05:48.305Z,99461.28
2023-02-18T11:08:21.115Z,99457.81
2023-02-18T11:10:50.375Z,99448.66
2023-02-18T11:13:32.159Z,99446.09
2023-02-18T11:16:12.332Z,99450.19
2023-02-18T11:18:46.958Z,99440.50
2023-02-18T11:21:31.444Z,99433.03
2023-02-18T11:24:15.806Z,99425.31
2023-02-18T11:26:46.760Z,99414.78
2023-02-18T11:29:24.856Z,99413.66
2023-02-18T11:31:55.924Z,99403.25
2023-02-18T11:34:27.626Z,99405.25
2023-02-18T11:36:55.135Z,99395.22
2023-02-18T11:39:26.905Z,99389.03
2023-02-18T11:42:00.757Z,99396.34
2023-02-18T11:44:53.138Z,99381.97
2023-02-18T11:47:35.342Z,99383.59
2023-02-18T11:50:11.077Z,99371.56
2023-02-18T11:52:45.247Z,99372.34
2023-02-18T11:55:22.139Z,99364.84
2023-02-18T11:58:11.260Z,99351.88
2023-02-18T12:00:45.648Z,99340.38
2023-02-18T12:03:47.542Z,99336.00
2023-02-18T12:06:35.235Z,99327.06
2023-02-18T12:09:20.810Z,99330.66
2023-02-18T12:12:02.140Z,99314.06
2023-02-18T12:14:30.179Z,99307.44
2023-02-18T12:17:31.405Z,99287.59
2023-02-18T12:20:37.199Z,99278.34
2023-02-18T12:23:18.425Z,99264.72
2023-02-18T12:25:58.100Z,99263.34
2023-02-18T12:28:55.149Z,99256.13
2023-02-18T12:31:44.195Z,99250.06
2023-02-18T12:34:30.257Z,99248.50
2023-02-18T12:37:10.305Z,99239.91
2023-02-18T12:40:10.881Z,99237.94
2023-02-18T12:43:08.582Z,99220.81
2023-02-18T12:45:36.083Z,99212.94
2023-02-18T12:48:16.921Z,99214.69
2023-02-18T12:50:52.667Z,99200.69
2023-02-18T12:53:31.683Z,99201.28
2023-02-18T12:56:41.221Z,99202.13
2023-02-18T12:59:35.928Z,99146.91
2023-02-18T13:02:30.231Z,99187.91
2023-02-18T13:05:21.935Z,99129.72
2023-02-18T13:08:18.504Z,99146.47
2023-02-18T13:11:04.940Z,99182.47
2023-02-18T13:13:48.453Z,99172.75
2023-02-18T13:16:21.795Z,99150.38
2023-02-18T13:19:19.363Z,99121.44
2023-02-18T13:21:52.850Z,99149.66
2023-02-18T13:24:37.610Z,99127.09
2023-02-18T13:27:45.246Z,99107.53
2023-02-18T13:30:39.211Z,99096.63
2023-02-18T13:33:09.781Z,99099.19
2023-02-18T13:35:45.054Z,99098.72
2023-02-18T13:38:43.172Z,99090.31
2023-02-18T13:41:12.134Z,99090.44
2023-02-18T13:43:40.261Z,99076.72
2023-02-18T13:46:16.808Z,99061.72
2023-02-18T13:49:06.003Z,99054.34
2023-02-18T13:51:48.271Z,99045.16
2023-02-18T13:54:34.234Z,99043.72
2023-02-18T13:57:16.298Z,99028.44
2023-02-18T13:59:59.326Z,99014.72
2023-02-18T14:02:27.740Z,99025.47
2023-02-18T14:04:58.928Z,99016.44
2023-02-18T14:07:42.189Z,99005.22
2023-02-18T14:10:21.830Z,98991.00
2023-02-18T14:12:58.396Z,98986.84
2023-02-18T14:15:26.724Z,98987.28
2023-02-18T14:18:15.726Z,98962.25
2023-02-18T14:20:52.150Z,98962.03
2023-02-18T14:23:21.294Z,98961.28
2023-02-18T14:26:06.444Z,98965.09
2023-02-18T14:28:55.909Z,98953.00
2023-02-18T14:31:36.574Z,98941.09
2023-02-18T14:34:24.152Z,98948.00
2023-02-18T14:36:57.652Z,98947.09
2023-02-18T14:39:37.377Z,98949.44
2023-02-18T14:42:41.391Z,98940.91
2023-02-18T14:45:15.232Z,98930.38
2023-02-18T14:48:03.420Z,98938.94
2023-02-18T14:50:41.993Z,98941.50
2023-02-18T14:53:19.271Z,98934.78
2023-02-18T14:55:51.132Z,98917.25
2023-02-18T14:58:31.364Z,98918.03
2023-02-18T15:01:05.908Z,98906.91
2023-02-18T15:03:33.831Z,98901.69
2023-02-18T15:06:01.658Z,98889.50
2023-02-18T15:08:39.320Z,98889.59
2023-02-18T15:11:08.862Z,98880.69
2023-02-18T15:13:42.338Z,98875.91
2023-02-18T15:16:13.423Z,98872.88
2023-02-18T15:18:44.869Z,98879.44
2023-02-18T15:21:30.568Z,98862.84
2023-02-18T15:24:28.127Z,98872.53
2023-02-18T15:27:00.681Z,98860.94
2023-02-18T15:29:30.460Z,98848.09
2023-02-18T15:31:58.615Z,98840.88
2023-02-18T15:34:38.447Z,98847.88
2023-02-18T15:37:13.582Z,98847.03
2023-02-18T15:39:54.684Z,98836.25
2023-02-18T15:42:31.160Z,98853.44
2023-02-18T15:45:14.762Z,98840.84
2023-02-18T15:47:52.427Z,98832.09
2023-02-18T15:50:26.741Z,98839.00
2023-02-18T15:52:55.750Z,98838.47
2023-02-18T15:55:34.201Z,98839.44
2023-02-18T15:58:16.776Z,98840.19
2023-02-18T16:00:54.324Z,98825.56
2023-02-18T16:03:40.470Z,98852.88
2023-02-18T16:06:13.766Z,98851.00
2023-02-18T16:08:41.985Z,98864.28
2023-02-18T16:11:15.460Z,98854.19
2023-02-18T16:13:51.191Z,98845.53
2023-02-18T16:16:30.041Z,98860.78
2023-02-18T16:18:57.725Z,98879.72
2023-02-18T16:21:34.948Z,98861.91
2023-02-18T16:24:04.686Z,98870.53
2023-02-18T16:26:42.750Z,98890.47
2023-02-18T16:29:17.160Z,98869.84
2023-02-18T16:31:46.974Z,98887.69
2023-02-18T16:34:14.441Z,98888.63
2023-02-18T16:37:02.172Z,98862.09
2023-02-18T16:39:35.474Z,98882.41
2023-02-18T16:42:04.418Z,98869.84
2023-02-18T16:44:33.064Z,98890.09
2023-02-18T16:47:00.720Z,98855.91
2023-02-18T16:49:29.122Z,98877.00
2023-02-18T16:51:57.053Z,98884.47
2023-02-18T16:54:24.825Z,98885.88
2023-02-18T16:56:53.875Z,98902.41
2023-02-18T16:59:21.427Z,98876.66
2023-02-18T17:01:49.340Z,98882.25
2023-02-18T17:04:20.173Z,98879.53
2023-02-18T17:06:47.898Z,98888.66
2023-02-18T17:09:20.746Z,98901.47
2023-02-18T17:11:54.620Z,98897.38
2023-02-18T17:14:23.853Z,98893.66
2023-02-18T17:16:54.792Z,98909.63
2023-02-18T17:19:22.924Z,98913.91
2023-02-18T17:21:51.862Z,98923.44
2023-02-18T17:24:20.680Z,98923.44
2023-02-18T17:26:49.190Z,98930.59
2023-02-18T17:29:23.782Z,98942.09
2023-02-18T17:31:57.194Z,98944.34
2023-02-18T17:34:33.189Z,98922.16
2023-02-18T17:37:01.427Z,98937.84
2023-02-18T17:39:32.226Z,98928.59
2023-02-18T17:42:00.528Z,98923.31
2023-02-18T17:44:29.417Z,98932.03
2023-02-18T17:46:57.325Z,98920.59
2023-02-18T17:49:27.627Z,98956.53
2023-02-18T17:51:57.272Z,98925.19
2023-02-18T17:54:28.207Z,98937.97
2023-02-18T17:56:59.492Z,98942.25
2023-02-18T17:59:28.822Z,98953.41
2023-02-18T18:02:01.043Z,98973.34
2023-02-18T18:04:30.140Z,98967.22
2023-02-18T18:06:57.779Z,98944.56
2023-02-18T18:09:27.632Z,98988.22
2023-02-18T18:12:02.852Z,98968.38
2023-02-18T18:14:31.163Z,98961.25
2023-02-18T18:16:59.631Z,98974.53
2023-02-18T18:19:28.449Z,98973.53
2023-02-18T18:21:56.397Z,98971.59
2023-02-18T18:24:26.394Z,99002.06
2023-02-18T18:27:00.880Z,98978.50
2023-02-18T18:29:28.389Z,98999.19
2023-02-18T18:31:56.894Z,99000.91
2023-02-18T18:34:25.311Z,99006.31
2023-02-18T18:36:53.822Z,98995.63
2023-02-18T18:39:23.457Z,98994.06
2023-02-18T18:41:52.213Z,99001.75
2023-02-18T18:44:20.829Z,99007.16
2023-02-18T18:46:50.236Z,99012.31
2023-02-18T18:49:20.316Z,99011.72
2023-02-18T18:51:49.291Z,99011.59
2023-02-18T18:54:17.645Z,99024.75
2023-02-18T18:56:45.307Z,99017.00
2023-02-18T18:59:16.068Z,99029.28
2023-02-18T19:01:44.773Z,99017.31
2023-02-18T19:04:14.119Z,99027.06
2023-02-18T19:06:42.072Z,99039.78
2023-02-18T19:09:10.934Z,99039.00
2023-02-18T19:11:40.226Z,99037.47
2023-02-18T19:14:13.653Z,99033.22
2023-02-18T19:16:44.126Z,99040.91
2023-02-18T19:19:13.099Z,99046.84
2023-02-18T19:21:47.233Z,99033.56
2023-02-18T19:24:16.361Z,99053.69
2023-02-18T19:26:44.987Z,99053.94
2023-02-18T19:29:14.574Z,99050.41
2023-02-18T19:31:45.187Z,99060.47
2023-02-18T19:34:13.130Z,99065.31
2023-02-18T19:36:45.770Z,99058.31
2023-02-18T19:39:14.390Z,99088.50
2023-02-18T19:41:44.489Z,99060.84
2023-02-18T19:44:13.857Z,99076.94
2023-02-18T19:46:48.321Z,99063.50
2023-02-18T19:49:17.282Z,99094.97
2023-02-18T19:51:51.704Z,99091.25
2023-02-18T19:54:20.007Z,99085.34
2023-02-18T19:56:48.114Z,99093.19
2023-02-18T19:59:16.564Z,99082.72
2023-02-18T20:01:58.197Z,99098.16
2023-02-18T20:04:27.389Z,99102.16
2023-02-18T20:06:55.464Z,99100.75
2023-02-18T20:09:23.536Z,99109.31
2023-02-18T20:11:52.122Z,99119.88
2023-02-18T20:14:21.009Z,99125.66
2023-02-18T20:16:49.346Z,99137.06
2023-02-18T20:19:18.806Z,99168.47
2023-02-18T20:21:48.222Z,99133.88
2023-02-18T20:24:18.693Z,99145.97
2023-02-18T20:26:47.063Z,99169.03
2023-02-18T20:29:17.097Z,99146.84
2023-02-18T20:31:46.106Z,99160.91
2023-02-18T20:34:15.301Z,99167.91
2023-02-18T20:36:44.833Z,99160.34
2023-02-18T20:39:20.102Z,99181.13
2023-02-18T20:41:53.265Z,99178.91
2023-02-18T20:44:22.440Z,99186.88
2023-02-18T20:46:56.278Z,99197.75
2023-02-18T20:49:25.512Z,99195.38
2023-02-18T20:52:01.989Z,99189.81
2023-02-18T20:54:32.331Z,99178.34
2023-02-18T20:56:59.953Z,99202.09
2023-02-18T20:59:29.873Z,99196.94
2023-02-18T21:01:58.421Z,99211.06
2023-02-18T21:04:27.556Z,99202.69
2023-02-18T21:06:57.843Z,99217.59
2023-02-18T21:09:34.656Z,99222.09
2023-02-18T21:12:03.084Z,99227.19
2023-02-18T21:14:34.903Z,99229.66
2023-02-18T21:17:04.902Z,99221.78
2023-02-18T21:19:32.963Z,99220.44
2023-02-18T21:22:01.416Z,99228.78
2023-02-18T21:24:34.251Z,99229.97
2023-02-18T21:27:06.080Z,99255.75
2023-02-18T21:29:42.549Z,99248.63
2023-02-18T21:32:15.478Z,99261.22
2023-02-18T21:34:45.994Z,99250.69
2023-02-18T21:37:17.704Z,99244.78
2023-02-18T21:39:57.824Z,99258.84
2023-02-18T21:42:28.909Z,99260.81
2023-02-18T21:44:57.322Z,99258.25
2023-02-18T21:47:28.896Z,99272.31
2023-02-18T21:49:57.619Z,99271.63
2023-02-18T21:52:30.050Z,99268.25
2023-02-18T21:54:58.184Z,99266.41
2023-02-18T21:57:26.214Z,99270.97
2023-02-18T21:59:53.902Z,99283.25
2023-02-18T22:02:24.565Z,99288.38
2023-02-18T22:04:58.260Z,99297.16
2023-02-18T22:07:26.800Z,99282.31
2023-02-18T22:09:54.343Z,99285.75
2023-02-18T22:12:23.655Z,99287.50
2023-02-18T22:14:51.227Z,99287.41
2023-02-18T22:17:21.805Z,99283.94
2023-02-18T22:19:50.186Z,99294.56
2023-02-18T22:22:17.741Z,99291.75
2023-02-18T22:24:51.615Z,99295.31
2023-02-18T22:27:19.971Z,99300.66
2023-02-18T22:29:49.917Z,99295.22
2023-02-18T22:32:17.337Z,99320.84
2023-02-18T22:34:44.636Z,99321.59
2023-02-18T22:37:13.325Z,99320.06
2023-02-18T22:39:40.602Z,99322.94
2023-02-18T22:42:08.131Z,99322.16
2023-02-18T22:44:35.522Z,99327.44
2023-02-18T22:47:02.993Z,99316.81
2023-02-18T22:49:30.539Z,99329.22
2023-02-18T22:51:57.948Z,99330.34
2023-02-18T22:54:31.064Z,99325.09
2023-02-18T22:56:59.551Z,99323.47
2023-02-18T22:59:28.000Z,99337.41
2023-02-18T23:01:55.468Z,99326.88
2023-02-18T23:04:23.108Z,99333.06
2023-02-18T23:06:51.063Z,99325.16
2023-02-18T23:09:22.248Z,99330.44
2023-02-18T23:11:54.918Z,99332.13
2023-02-18T23:14:31.332Z,99323.25
2023-02-18T23:17:17.981Z,99331.13
2023-02-18T23:19:50.896Z,99335.44
2023-02-18T23:22:30.593Z,99329.50
2023-02-18T23:24:59.717Z,99328.44
2023-02-18T23:27:28.301Z,99318.75
2023-02-18T23:29:56.852Z,99317.00
2023-02-18T23:32:24.259Z,99319.63
2023-02-18T23:34:52.714Z,99318.91
2023-02-18T23:37:43.712Z,99317.84
2023-02-18T23:40:14.100Z,99311.72
2023-02-18T23:42:41.158Z,99319.00
2023-02-18T23:45:08.654Z,99312.66
2023-02-18T23:47:41.883Z,99308.63
2023-02-18T23:50:09.589Z,99310.25
2023-02-18T23:52:36.848Z,99309.50
2023-02-18T23:55:04.553Z,99319.38
2023-02-18T23:57:33.292Z,99320.19
